الصفحة الرئيسية
METAR-TAF:

METAR-TAF

مطار :

سكوتسبلوف, نبراسكا, الولايات المتحدة

دائرة عرض: 41-52-01N, خط طول: 103-35-09W, ارتفاع: 1208 متر

مراقبة الطقس الحالي

تاريخ ووقت الإصدار 54 دقيقة قبل الساعة 21:53UTC
ريح 6 عقدة من الغرب
درجة الحرارة 32°درجة مئوية
الرطوبة 8%
ضغط 1015 hPa
الرؤية: 16.1 كم
سماء صافية

METAR: KBFF 222153Z AUTO 28006KT 10SM CLR 32/M07 A2997 RMK AO2 SLP103 T03221067

زمن: 16:47 (22:47 UTC)

توقعات

تاريخ ووقت الإصدار 5ساعات و 26 دقيقة قبل الساعة 17:21UTC
التوقعات صالحة من22 الساعة 18 UTC إلى 23 الساعة 18 UTC
ريح 9 عقدة من الغرب
الرؤية: 10 كم
سماء صافية
من 23 الساعة 0200 UTC
ريح 7 عقدة من الشرق/الجنوب الشرقي
الرؤية: 10 كم
سماء صافية

TAF: KBFF 221721Z 2218/2318 28009KT P6SM SKC FM230200 11007KT P6SM SKC

أرصاد الطقس والتوقعات من أكثر من 4000 مطار (تقارير الطقس للمطار METAR والتنبؤ بالطقس بالمطارTAF).

المحطات المتاحة هي النقط الصفراء والحمراء على الخريطة.

حرك المؤشر فوق النقطة لمعرفة اسم المحطة.

ثم انقر لمعرفة أرصاد وتوقعات الطقس.

لتغيير الخارطة: اضغط على الأزرار الخضراء مع رمز الصليب الأسود للتكبير. على الزر الأخضر مع شرطة للتصغير، أو على الأسهم الخضراء للخرائط المجاورة.


METAR-TAF: